Time;durP1;ratioP1;P1;durP2;ratioP2;P2;SDS_P1;SDS_P2;PMS_P1;PMS_P2;Temp;Humidity;BMP_temperature;BMP_pressure;BME280_temperature;BME280_humidity;BME280_pressure;Samples;Min_cycle;Max_cycle;Signal;HPM_P1;HPM_P2
2022/12/27 00:03:16;;;;;;;1.67;0.60;;;;;;;8.64;48.68;98539.41;8449613;28;20366;-68
2022/12/27 00:07:21;;;;;;;1.07;0.50;;;;;;;8.43;48.08;98538.25;8449143;28;20419;-68
2022/12/27 00:11:26;;;;;;;1.47;0.80;;;;;;;8.38;48.14;98516.88;8449368;28;20383;-68
2022/12/27 00:15:29;;;;;;;1.80;0.70;;;;;;;8.46;47.83;98550.25;8449118;28;20224;-67
2022/12/27 00:19:32;;;;;;;1.13;0.87;;;;;;;8.16;47.43;98550.94;8448996;28;20239;-68
2022/12/27 00:23:37;;;;;;;1.73;0.90;;;;;;;8.26;47.21;98561.03;8448882;28;20231;-69
2022/12/27 00:27:40;;;;;;;1.83;0.70;;;;;;;8.28;47.41;98577.31;8448387;28;20231;-68
2022/12/27 00:31:43;;;;;;;1.27;0.60;;;;;;;7.81;46.97;98537.19;8448634;28;20224;-68
2022/12/27 00:35:46;;;;;;;0.87;0.70;;;;;;;7.82;47.79;98575.00;8448017;28;20232;-68
2022/12/27 00:39:50;;;;;;;2.30;0.90;;;;;;;7.93;46.90;98597.09;8447479;28;20636;-68
2022/12/27 00:43:53;;;;;;;1.87;0.60;;;;;;;8.12;46.97;98600.94;8446626;28;20512;-68
2022/12/27 00:47:56;;;;;;;1.57;0.50;;;;;;;8.14;46.25;98608.63;8448074;28;20420;-68
2022/12/27 00:51:59;;;;;;;2.23;0.67;;;;;;;7.87;46.63;98605.00;8447895;28;20224;-68
2022/12/27 00:56:07;;;;;;;1.93;0.63;;;;;;;7.38;47.37;98503.84;8447721;28;20231;-68
2022/12/27 01:00:11;;;;;;;1.13;0.60;;;;;;;7.86;47.92;98631.66;8447510;28;20232;-68
2022/12/27 01:04:14;;;;;;;1.63;0.50;;;;;;;7.37;47.25;98549.38;8447719;28;20484;-68
2022/12/27 01:08:17;;;;;;;2.00;0.63;;;;;;;7.96;47.82;98635.72;8447578;28;20525;-68
2022/12/27 01:12:22;;;;;;;1.43;0.60;;;;;;;7.73;47.78;98644.84;8447242;28;20224;-68
2022/12/27 01:16:26;;;;;;;1.77;0.70;;;;;;;7.49;48.59;98604.97;8447452;28;20553;-68
2022/12/27 01:20:29;;;;;;;0.83;0.63;;;;;;;7.87;48.44;98661.72;8446890;28;20245;-66
2022/12/27 01:24:34;;;;;;;1.27;0.70;;;;;;;7.36;49.09;98675.69;8446656;28;20234;-66
2022/12/27 01:28:41;;;;;;;1.88;0.77;;;;;;;7.49;46.38;98558.56;8444808;28;20410;-66
2022/12/27 01:32:44;;;;;;;2.17;0.63;;;;;;;8.00;47.58;98688.94;8446701;28;20321;-67
2022/12/27 01:36:46;;;;;;;0.80;0.60;;;;;;;8.15;48.17;98705.81;8446530;28;20232;-66
2022/12/27 01:40:49;;;;;;;1.33;0.60;;;;;;;8.02;48.44;98710.38;8446423;28;20523;-67
2022/12/27 01:44:58;;;;;;;1.93;0.67;;;;;;;8.01;48.00;98719.00;8446057;28;20232;-71
2022/12/27 01:49:01;;;;;;;2.90;0.90;;;;;;;7.91;47.75;98731.25;8446417;28;20545;-68
2022/12/27 01:53:09;;;;;;;1.97;0.80;;;;;;;7.68;48.18;98703.38;8444990;28;20227;-68
2022/12/27 01:57:12;;;;;;;1.20;0.67;;;;;;;8.19;48.06;98736.66;8445925;28;20239;-69
2022/12/27 02:01:19;;;;;;;0.70;0.50;;;;;;;8.10;48.00;98761.81;8446147;28;20235;-68
2022/12/27 02:05:24;;;;;;;1.20;0.60;;;;;;;7.91;47.72;98749.31;8445998;28;20538;-68
2022/12/27 02:09:31;;;;;;;0.63;0.60;;;;;;;7.98;47.67;98758.63;8445684;28;20223;-68
2022/12/27 02:13:38;;;;;;;3.57;0.70;;;;;;;7.95;47.28;98761.25;8445762;28;20219;-68
2022/12/27 02:17:44;;;;;;;1.80;1.10;;;;;;;8.06;47.51;98773.94;8445472;28;20235;-68
2022/12/27 02:22:04;;;;;;;2.50;0.90;;;;;;;8.03;47.65;98784.31;8445555;28;20231;-68
2022/12/27 02:26:37;;;;;;;3.73;0.93;;;;;;;8.02;48.11;98778.31;8445283;28;20235;-68
2022/12/27 02:30:51;;;;;;;3.20;0.90;;;;;;;8.10;47.15;98782.47;8443515;28;20227;-68
2022/12/27 02:35:01;;;;;;;2.57;0.80;;;;;;;8.21;46.95;98783.91;8445111;28;20265;-68
2022/12/27 02:39:04;;;;;;;2.50;0.80;;;;;;;8.15;47.92;98794.38;8445295;28;20585;-68
2022/12/27 03:05:23;;;;;;;1.30;0.70;;;;;;;7.77;48.16;98806.31;8449507;28;20227;-68
2022/12/27 03:18:23;;;;;;;2.33;0.80;;;;;;;7.75;47.28;98823.56;8433235;28;20231;-68
2022/12/27 03:26:50;;;;;;;2.77;0.70;;;;;;;7.71;47.91;98823.63;8450443;28;20227;-68
2022/12/27 03:35:20;;;;;;;0.80;0.50;;;;;;;7.67;48.51;98834.88;8450149;28;20238;-67
2022/12/27 03:39:27;;;;;;;1.83;0.70;;;;;;;7.40;48.23;98795.84;8450065;28;20439;-66
2022/12/27 03:43:30;;;;;;;4.33;0.80;;;;;;;7.77;48.10;98829.53;8450101;28;20227;-67
2022/12/27 03:47:37;;;;;;;4.50;0.90;;;;;;;7.61;47.62;98825.53;8449908;28;20223;-67
2022/12/27 03:51:42;;;;;;;1.13;0.70;;;;;;;7.56;48.15;98832.53;8449871;28;20519;-67
2022/12/27 03:55:47;;;;;;;1.97;0.70;;;;;;;7.13;48.22;98772.28;8449617;28;20553;-67
2022/12/27 03:59:50;;;;;;;1.10;0.80;;;;;;;7.40;48.40;98814.72;8449814;28;20239;-68
2022/12/27 04:03:53;;;;;;;2.73;0.90;;;;;;;7.64;48.73;98840.94;8448981;28;20223;-67
2022/12/27 04:38:20;;;;;;;1.57;0.77;;;;;;;7.64;49.46;98853.84;8448427;28;20515;-67
2022/12/27 04:55:23;;;;;;;1.57;0.70;;;;;;;7.44;49.79;98861.91;8424876;28;20228;-67
2022/12/27 05:03:49;;;;;;;1.60;0.70;;;;;;;7.13;50.62;98859.84;8447408;28;20232;-68
2022/12/27 05:16:35;;;;;;;1.23;0.60;;;;;;;7.27;50.95;98866.50;8447121;28;20223;-67
2022/12/27 05:20:39;;;;;;;2.83;1.00;;;;;;;7.13;51.13;98862.44;8447244;28;20235;-67
2022/12/27 05:29:03;;;;;;;2.00;0.70;;;;;;;7.02;52.08;98880.63;8430934;28;20227;-67
2022/12/27 05:33:06;;;;;;;2.00;0.80;;;;;;;7.16;51.93;98883.00;8446657;28;20245;-67
2022/12/27 05:37:11;;;;;;;2.17;0.73;;;;;;;7.17;52.06;98878.69;8446480;28;20235;-67
2022/12/27 05:41:13;;;;;;;2.67;0.70;;;;;;;7.26;52.14;98878.56;8446545;28;20231;-67
2022/12/27 05:45:16;;;;;;;4.03;1.00;;;;;;;7.13;52.43;98880.47;8446532;28;20227;-68
2022/12/27 05:49:19;;;;;;;3.57;0.90;;;;;;;7.08;52.70;98876.25;8446316;28;20227;-66
2022/12/27 05:53:23;;;;;;;3.07;1.17;;;;;;;7.14;53.15;98889.91;8446331;28;20220;-67
2022/12/27 05:57:26;;;;;;;2.83;1.13;;;;;;;6.94;52.42;98812.09;8445922;28;20231;-67
2022/12/27 06:01:29;;;;;;;5.60;1.10;;;;;;;7.38;52.58;98896.38;8446190;28;20306;-67
2022/12/27 06:05:32;;;;;;;4.97;0.80;;;;;;;7.32;52.61;98893.06;8446001;28;20226;-67
2022/12/27 06:09:36;;;;;;;2.13;0.80;;;;;;;7.37;52.81;98894.69;8446230;28;20223;-67
2022/12/27 06:13:41;;;;;;;2.93;1.30;;;;;;;6.67;53.51;98821.97;8445579;28;20238;-67
2022/12/27 06:17:44;;;;;;;5.27;1.60;;;;;;;7.30;52.86;98895.66;8445828;28;20250;-67
2022/12/27 06:21:46;;;;;;;3.57;1.10;;;;;;;7.30;52.92;98894.81;8445946;28;20527;-67
2022/12/27 06:25:50;;;;;;;3.80;1.10;;;;;;;7.05;53.84;98892.63;8445836;28;20223;-67
2022/12/27 06:29:53;;;;;;;3.73;1.17;;;;;;;7.21;53.35;98896.66;8445244;28;20223;-67
2022/12/27 06:33:56;;;;;;;2.83;1.17;;;;;;;6.94;54.44;98899.66;8445442;28;20231;-67
2022/12/27 06:37:59;;;;;;;3.67;1.20;;;;;;;7.04;53.79;98889.22;8446613;28;20406;-67
2022/12/27 06:42:04;;;;;;;2.77;1.20;;;;;;;7.10;53.95;98908.00;8452007;28;20250;-67
2022/12/27 06:46:09;;;;;;;2.73;0.93;;;;;;;7.07;54.44;98905.50;8451887;28;20242;-67
2022/12/27 06:50:18;;;;;;;2.33;1.00;;;;;;;7.01;54.75;98911.59;8452032;28;20227;-67
2022/12/27 06:54:21;;;;;;;2.70;1.30;;;;;;;6.90;55.01;98916.03;8451971;28;20219;-67
2022/12/27 06:58:25;;;;;;;2.70;1.20;;;;;;;7.05;54.90;98932.09;8451570;28;20254;-67
2022/12/27 07:02:28;;;;;;;3.67;1.30;;;;;;;7.10;55.01;98932.06;8451473;28;20393;-67
2022/12/27 07:06:32;;;;;;;3.97;1.00;;;;;;;7.10;54.90;98933.75;8451267;28;20219;-67
2022/12/27 07:10:36;;;;;;;1.70;1.10;;;;;;;7.13;55.00;98938.88;8451093;28;20231;-67
2022/12/27 07:14:40;;;;;;;3.60;1.40;;;;;;;7.07;54.72;98942.38;8451631;28;20258;-67
2022/12/27 07:18:44;;;;;;;4.37;1.40;;;;;;;7.19;54.56;98941.34;8448263;28;20258;-67
2022/12/27 07:22:47;;;;;;;3.33;1.10;;;;;;;6.79;55.97;98944.50;8451247;28;20220;-67
2022/12/27 07:26:50;;;;;;;5.13;1.40;;;;;;;7.29;54.70;98954.94;8450998;28;20254;-68
2022/12/27 07:30:54;;;;;;;3.80;1.40;;;;;;;7.29;54.07;98960.97;8449250;28;20223;-67
2022/12/27 07:34:58;;;;;;;4.40;1.37;;;;;;;7.20;54.37;98940.50;8450827;28;20227;-66
2022/12/27 07:39:01;;;;;;;2.50;1.13;;;;;;;7.30;54.37;98962.66;8450288;28;20561;-67
2022/12/27 07:43:04;;;;;;;3.23;1.10;;;;;;;7.42;54.19;98966.75;8450000;28;20235;-67
2022/12/27 07:47:08;;;;;;;3.97;1.70;;;;;;;7.43;54.14;98974.47;8450026;28;20502;-67
2022/12/27 07:51:11;;;;;;;3.07;1.10;;;;;;;7.54;53.84;98978.59;8449806;28;20499;-67
2022/12/27 07:55:14;;;;;;;5.83;1.53;;;;;;;7.35;54.32;98963.44;8449686;28;20219;-66
2022/12/27 07:59:17;;;;;;;7.57;3.57;;;;;;;8.47;51.33;98929.66;8449825;28;20238;-66
2022/12/27 08:03:21;;;;;;;6.57;3.97;;;;;;;11.48;43.87;98979.66;8449626;28;20215;-67
2022/12/27 08:07:25;;;;;;;5.10;2.40;;;;;;;12.70;41.91;98979.00;8449851;28;20433;-67
2022/12/27 08:11:28;;;;;;;4.83;1.57;;;;;;;13.34;40.23;98978.31;8449343;28;20229;-67
2022/12/27 08:15:32;;;;;;;3.53;1.80;;;;;;;12.69;41.48;98985.91;8449113;28;20224;-67
2022/12/27 08:19:36;;;;;;;3.73;1.53;;;;;;;10.22;46.00;98976.38;8449084;28;20232;-67
2022/12/27 08:23:39;;;;;;;5.17;1.83;;;;;;;9.48;48.03;98943.78;8448984;28;20235;-67
2022/12/27 08:27:41;;;;;;;3.87;1.60;;;;;;;9.33;49.29;98987.22;8448871;28;20232;-66
2022/12/27 08:31:44;;;;;;;3.80;1.40;;;;;;;8.91;50.71;98986.41;8448873;28;20375;-67
2022/12/27 08:35:49;;;;;;;4.33;1.53;;;;;;;8.65;50.96;98981.81;8448590;28;20234;-67
2022/12/27 08:39:56;;;;;;;3.73;1.40;;;;;;;8.48;52.37;98980.41;8447883;28;20292;-67
2022/12/27 08:44:04;;;;;;;3.53;1.43;;;;;;;8.60;52.25;98975.03;8448397;28;20235;-67
2022/12/27 08:48:07;;;;;;;2.17;1.27;;;;;;;8.69;52.39;98983.44;8448279;28;20541;-67
2022/12/27 08:52:12;;;;;;;4.83;1.70;;;;;;;8.69;52.05;98981.72;8447861;28;20239;-67
2022/12/27 08:56:15;;;;;;;5.40;1.60;;;;;;;8.64;52.54;98988.69;8448013;28;20221;-66
2022/12/27 09:00:17;;;;;;;5.53;1.67;;;;;;;8.48;53.24;98987.31;8447249;28;20235;-67
2022/12/27 09:04:21;;;;;;;3.93;1.37;;;;;;;8.40;53.40;98984.84;8447679;28;20224;-67
2022/12/27 09:08:25;;;;;;;4.13;1.40;;;;;;;8.43;53.37;99002.03;8447735;28;20240;-67
2022/12/27 09:12:28;;;;;;;5.10;1.60;;;;;;;8.47;53.47;99012.25;8447519;28;20228;-68
2022/12/27 09:16:32;;;;;;;2.57;1.40;;;;;;;8.62;52.81;99024.03;8447423;28;20220;-68
2022/12/27 09:20:35;;;;;;;6.50;1.40;;;;;;;8.54;53.33;99029.34;8447183;28;20238;-68
2022/12/27 09:24:39;;;;;;;3.73;1.20;;;;;;;8.60;53.09;99037.00;8446978;28;20220;-68
2022/12/27 09:28:43;;;;;;;3.53;1.50;;;;;;;8.28;54.17;99041.84;8446968;28;20243;-68
2022/12/27 09:32:45;;;;;;;3.13;1.30;;;;;;;8.55;53.13;99028.47;8446903;28;20228;-68
2022/12/27 09:36:48;;;;;;;5.03;1.37;;;;;;;8.84;53.00;99044.28;8446762;28;20231;-68
2022/12/27 09:40:53;;;;;;;5.10;1.67;;;;;;;9.07;55.18;99039.47;8446439;28;20238;-70
2022/12/27 09:45:00;;;;;;;3.47;1.23;;;;;;;8.94;53.24;99054.38;8446349;28;20223;-70
2022/12/27 09:49:03;;;;;;;5.17;1.47;;;;;;;8.49;54.54;99054.41;8446624;28;20262;-70
2022/12/27 09:53:12;;;;;;;5.40;1.50;;;;;;;8.95;53.26;99050.09;8446578;28;20227;-69
2022/12/27 09:57:18;;;;;;;3.83;1.27;;;;;;;9.04;52.47;99020.59;8446325;28;20246;-69
2022/12/27 10:01:32;;;;;;;3.13;1.20;;;;;;;9.09;52.46;99050.63;8446553;28;20223;-69
2022/12/27 10:05:36;;;;;;;4.23;1.20;;;;;;;9.22;52.87;99040.91;8446491;28;20230;-69
2022/12/27 10:09:51;;;;;;;6.07;1.50;;;;;;;9.84;52.20;99052.41;8446136;28;20232;-69
2022/12/27 10:14:06;;;;;;;3.77;1.20;;;;;;;9.82;50.94;99052.44;8448499;28;20235;-69
2022/12/27 10:18:17;;;;;;;2.30;1.03;;;;;;;10.07;49.81;99036.31;8452762;28;20238;-69
2022/12/27 10:22:24;;;;;;;3.73;1.10;;;;;;;10.05;50.07;99038.09;8452981;28;20229;-69
2022/12/27 10:26:27;;;;;;;4.57;1.40;;;;;;;10.39;49.87;99034.69;8452916;28;20536;-69
2022/12/27 10:30:31;;;;;;;5.13;1.20;;;;;;;10.75;50.42;99041.44;8452777;28;20229;-68
2022/12/27 10:34:34;;;;;;;3.30;1.27;;;;;;;13.00;59.67;99026.38;8452772;28;20545;-69
2022/12/27 10:38:37;;;;;;;5.07;1.50;;;;;;;13.48;50.21;99035.88;8452387;28;20224;-69
2022/12/27 10:42:43;;;;;;;3.67;1.30;;;;;;;12.42;46.68;99025.91;8452079;28;20243;-69
2022/12/27 10:46:51;;;;;;;3.70;1.50;;;;;;;12.15;44.52;99012.97;8452274;28;20227;-68
2022/12/27 10:50:56;;;;;;;3.27;1.30;;;;;;;12.06;46.10;99019.31;8451718;28;20503;-68
2022/12/27 10:54:58;;;;;;;4.33;1.30;;;;;;;11.96;45.73;99027.47;8451917;28;20232;-68
2022/12/27 10:59:11;;;;;;;2.53;1.37;;;;;;;11.80;45.35;99017.53;8451604;28;20231;-68
2022/12/27 11:03:19;;;;;;;3.57;1.40;;;;;;;11.28;46.52;99004.47;8451753;28;20224;-69
2022/12/27 11:07:24;;;;;;;4.37;1.30;;;;;;;11.22;46.33;99009.84;8449800;28;20223;-68
2022/12/27 11:11:28;;;;;;;3.20;1.20;;;;;;;11.18;47.69;98994.44;8450436;28;20375;-69
2022/12/27 11:15:32;;;;;;;3.20;1.60;;;;;;;11.23;47.17;99008.09;8451224;28;20493;-69
2022/12/27 11:19:37;;;;;;;2.77;1.20;;;;;;;11.03;47.11;99006.97;8450636;28;20227;-69
2022/12/27 11:23:45;;;;;;;6.53;1.60;;;;;;;10.83;47.01;99004.09;8450613;28;20232;-69
2022/12/27 11:27:49;;;;;;;5.07;1.20;;;;;;;11.06;47.32;98993.91;8450660;28;20247;-68
2022/12/27 11:31:52;;;;;;;3.73;1.50;;;;;;;10.80;47.94;98992.09;8450310;28;20255;-70
2022/12/27 11:35:58;;;;;;;5.57;1.30;;;;;;;11.01;47.52;98998.38;8450537;28;20531;-69
2022/12/27 11:40:19;;;;;;;2.77;1.30;;;;;;;10.61;47.69;99002.13;8450031;28;20263;-68
2022/12/27 11:44:24;;;;;;;4.47;1.37;;;;;;;10.67;47.77;98994.19;8450209;28;20227;-68
2022/12/27 11:48:29;;;;;;;3.07;1.20;;;;;;;10.80;47.70;99002.44;8449697;28;20231;-69
2022/12/27 11:52:48;;;;;;;3.30;1.20;;;;;;;10.47;48.78;98979.22;8449809;28;20227;-68
2022/12/27 11:56:52;;;;;;;3.03;1.40;;;;;;;10.75;47.50;98983.59;8449809;28;20231;-68
2022/12/27 12:00:58;;;;;;;4.67;1.47;;;;;;;10.47;48.27;98983.50;8449300;28;20238;-68
2022/12/27 12:05:47;;;;;;;4.07;1.13;;;;;;;10.65;48.50;98989.94;8449509;28;20227;-69
2022/12/27 12:10:05;;;;;;;3.20;1.27;;;;;;;10.50;48.08;98986.88;8449497;28;20235;-68
2022/12/27 12:14:32;;;;;;;2.23;1.23;;;;;;;10.42;48.26;98995.75;8449174;28;20518;-68
2022/12/27 12:18:57;;;;;;;3.53;1.30;;;;;;;10.40;49.07;98995.78;8448984;28;20432;-68
2022/12/27 12:23:08;;;;;;;3.83;1.47;;;;;;;10.45;48.45;98999.13;8448601;28;20219;-68
2022/12/27 12:27:37;;;;;;;3.73;1.50;;;;;;;10.36;47.92;98981.25;8448986;28;20248;-68
2022/12/27 12:31:54;;;;;;;3.87;1.20;;;;;;;10.35;48.06;98974.34;8448904;28;20234;-68
2022/12/27 12:36:22;;;;;;;3.90;1.37;;;;;;;10.43;47.91;98981.91;8447365;28;20242;-68
2022/12/27 12:40:36;;;;;;;6.03;1.30;;;;;;;10.36;48.52;98978.66;8448279;28;20231;-68
2022/12/27 12:45:21;;;;;;;6.00;1.47;;;;;;;10.27;48.42;98979.72;8448362;28;20326;-68
2022/12/27 12:49:58;;;;;;;3.50;1.20;;;;;;;10.40;48.52;98988.03;8407100;28;20601;-68
2022/12/27 12:54:10;;;;;;;3.13;1.07;;;;;;;10.36;49.07;98987.25;8447399;28;20233;-67
2022/12/27 12:58:28;;;;;;;4.17;1.47;;;;;;;10.05;48.78;98970.81;8447235;28;20232;-68
2022/12/27 13:03:09;;;;;;;2.87;1.23;;;;;;;10.03;48.48;98962.22;8447155;28;20239;-68
2022/12/27 13:07:24;;;;;;;10.60;6.20;;;;;;;10.17;48.72;98965.31;8390730;28;22405;-68
2022/12/27 13:11:40;;;;;;;7.80;3.23;;;;;;;10.14;48.91;98966.22;8447444;28;20234;-68
2022/12/27 13:15:54;;;;;;;15.40;8.10;;;;;;;10.08;48.85;98969.00;8447047;28;20235;-67
2022/12/27 13:20:18;;;;;;;9.03;4.47;;;;;;;10.40;48.51;98967.31;8446245;28;20228;-67
2022/12/27 13:24:31;;;;;;;7.23;2.60;;;;;;;10.46;47.91;98956.78;8447064;28;20234;-69
2022/12/27 13:28:41;;;;;;;5.93;2.87;;;;;;;10.23;48.30;98957.38;8447046;28;20499;-68
2022/12/27 13:33:21;;;;;;;6.23;3.10;;;;;;;10.31;48.98;98965.81;8446909;28;20435;-68
2022/12/27 13:37:33;;;;;;;8.40;3.90;;;;;;;10.28;47.91;98967.59;8324496;28;20215;-68
2022/12/27 13:41:46;;;;;;;5.37;2.17;;;;;;;10.31;47.72;98973.56;8446411;28;20546;-70
2022/12/27 13:45:59;;;;;;;5.07;1.63;;;;;;;10.22;48.54;98966.03;8446505;28;20238;-69
2022/12/27 13:50:16;;;;;;;4.90;2.00;;;;;;;10.30;48.91;98977.06;8445769;28;20509;-69
2022/12/27 13:54:52;;;;;;;6.57;2.77;;;;;;;10.12;48.38;98939.53;8446655;28;20229;-69
2022/12/27 13:59:26;;;;;;;5.00;1.70;;;;;;;10.23;47.78;98949.63;8445103;28;20234;-69
2022/12/27 14:03:53;;;;;;;4.47;1.50;;;;;;;10.23;48.47;98972.06;8443960;28;20279;-69
2022/12/27 14:08:00;;;;;;;3.70;1.13;;;;;;;10.23;48.68;98979.84;8445682;28;20449;-69
2022/12/27 14:12:12;;;;;;;4.77;1.50;;;;;;;10.12;48.63;98977.53;8445636;28;20243;-69
2022/12/27 14:16:30;;;;;;;4.03;2.00;;;;;;;10.01;49.09;98992.47;8445916;28;20225;-68
2022/12/27 14:20:50;;;;;;;3.10;1.47;;;;;;;9.87;49.25;98998.84;8446723;28;20237;-67
2022/12/27 14:25:14;;;;;;;4.33;1.40;;;;;;;9.83;49.30;98992.06;8446529;28;20230;-68
2022/12/27 14:29:40;;;;;;;5.00;1.23;;;;;;;9.77;49.53;98994.81;8445930;28;20534;-69
2022/12/27 14:34:18;;;;;;;5.13;1.47;;;;;;;9.87;49.67;98998.84;8445749;28;20464;-68
2022/12/27 14:38:45;;;;;;;3.57;1.30;;;;;;;9.19;49.56;98916.88;8443151;28;20225;-68
2022/12/27 14:43:35;;;;;;;6.73;1.60;;;;;;;9.83;49.54;99002.41;8445319;28;20240;-68
2022/12/27 14:48:19;;;;;;;4.67;1.67;;;;;;;9.67;50.37;99017.47;8421712;28;20222;-68
2022/12/27 15:14:06;;;;;;;5.17;1.53;;;;;;;9.59;50.46;99001.25;8450912;28;20247;-69
2022/12/27 15:18:22;;;;;;;4.93;1.37;;;;;;;9.45;50.83;99000.75;8450461;28;20239;-69
2022/12/27 15:22:30;;;;;;;3.33;1.57;;;;;;;9.43;51.09;98997.34;8450624;28;20239;-69
2022/12/27 15:26:37;;;;;;;2.70;1.60;;;;;;;9.45;51.05;98993.84;8450326;28;20232;-69
2022/12/27 15:30:46;;;;;;;3.27;1.50;;;;;;;8.89;51.51;98929.66;8450393;28;20234;-69
2022/12/27 15:34:58;;;;;;;3.20;1.50;;;;;;;9.39;50.79;98979.31;8450577;28;20299;-69
2022/12/27 15:39:02;;;;;;;4.43;2.33;;;;;;;9.27;50.42;98989.09;8449275;28;20524;-68
2022/12/27 15:43:13;;;;;;;6.33;3.80;;;;;;;9.26;50.59;98990.81;8449479;28;20238;-69
2022/12/27 15:47:37;;;;;;;4.10;2.60;;;;;;;9.39;50.54;98994.00;8449586;28;20228;-68
2022/12/27 15:51:46;;;;;;;4.50;2.20;;;;;;;9.32;50.71;98982.09;8449942;28;20240;-69
2022/12/27 15:56:22;;;;;;;6.90;2.07;;;;;;;9.34;50.66;98981.16;8449530;28;20233;-68
2022/12/27 16:00:29;;;;;;;4.80;1.63;;;;;;;9.34;50.91;98980.31;8409669;28;20237;-69
2022/12/27 16:04:47;;;;;;;4.30;1.80;;;;;;;9.27;50.87;98979.63;8449298;28;20232;-68
2022/12/27 16:09:31;;;;;;;3.47;1.40;;;;;;;9.28;51.20;98975.28;8449170;28;20237;-69
2022/12/27 16:13:48;;;;;;;3.70;2.07;;;;;;;9.22;51.51;98975.44;8447865;28;20228;-68
2022/12/27 16:17:54;;;;;;;4.43;2.30;;;;;;;9.05;51.25;98958.56;8448973;28;20242;-68
2022/12/27 16:22:17;;;;;;;7.33;2.90;;;;;;;9.07;51.49;98985.22;8448523;28;20233;-67
2022/12/27 16:26:22;;;;;;;4.90;1.97;;;;;;;9.10;51.57;98979.13;8448871;28;20239;-67
2022/12/27 16:30:42;;;;;;;4.03;1.90;;;;;;;9.01;51.52;98975.03;8448440;28;20227;-67
2022/12/27 16:34:46;;;;;;;5.87;2.17;;;;;;;8.89;52.04;98985.59;8448566;28;20236;-67
2022/12/27 16:39:18;;;;;;;3.90;1.83;;;;;;;9.07;51.40;98990.38;8448572;28;20513;-67
2022/12/27 16:43:32;;;;;;;5.47;2.23;;;;;;;8.78;52.27;98989.28;8438243;28;20496;-69
2022/12/27 16:47:43;;;;;;;6.43;2.13;;;;;;;8.94;51.93;98991.53;8448328;28;20224;-67
2022/12/27 16:51:58;;;;;;;5.47;2.40;;;;;;;8.96;51.70;98984.59;8448160;28;20406;-67
2022/12/27 16:56:15;;;;;;;3.53;1.93;;;;;;;8.87;52.11;98972.75;8447152;28;20323;-71
2022/12/27 17:00:37;;;;;;;4.60;2.10;;;;;;;8.77;51.86;98973.81;8447865;28;20232;-68
2022/12/27 17:04:59;;;;;;;5.53;2.20;;;;;;;8.72;51.91;98960.13;8447629;28;20250;-68
2022/12/27 17:09:37;;;;;;;8.60;2.30;;;;;;;8.76;52.29;98982.44;8447291;28;20531;-68
2022/12/27 17:13:45;;;;;;;10.63;5.53;;;;;;;8.76;52.00;98982.44;8447351;28;20235;-68
2022/12/27 17:17:51;;;;;;;5.80;3.43;;;;;;;8.67;52.49;98969.72;8447218;28;20235;-68
2022/12/27 17:21:57;;;;;;;5.47;3.60;;;;;;;8.71;52.48;98961.03;8446604;28;20223;-68
2022/12/27 17:26:11;;;;;;;5.97;4.10;;;;;;;8.70;52.42;98970.50;8446834;28;20228;-68
2022/12/27 17:30:23;;;;;;;9.00;4.63;;;;;;;8.35;53.19;98956.53;8447115;28;20229;-68
2022/12/27 17:34:34;;;;;;;8.50;4.60;;;;;;;8.30;53.19;98953.22;8446837;28;20237;-68
2022/12/27 17:38:46;;;;;;;8.43;6.07;;;;;;;8.31;52.93;98951.47;8446866;28;20219;-68
2022/12/27 17:47:42;;;;;;;8.47;6.37;;;;;;;8.27;53.07;98932.63;8446146;28;20227;-68
2022/12/27 18:00:35;;;;;;;18.07;11.23;;;;;;;7.92;53.67;98936.72;8446295;28;20228;-68
2022/12/27 18:04:42;;;;;;;8.13;4.70;;;;;;;7.68;54.30;98940.56;8446474;28;20522;-69
2022/12/27 18:08:47;;;;;;;7.63;5.00;;;;;;;7.74;54.34;98922.41;8446256;28;20239;-68
2022/12/27 18:12:52;;;;;;;7.63;5.33;;;;;;;7.69;54.22;98925.94;8445716;28;20228;-68
2022/12/27 18:16:55;;;;;;;11.83;7.10;;;;;;;7.79;54.10;98918.03;8445501;28;20228;-69
2022/12/27 18:21:01;;;;;;;10.73;6.07;;;;;;;7.81;54.29;98918.84;8445648;28;20264;-68
2022/12/27 18:25:23;;;;;;;6.67;4.70;;;;;;;7.65;54.15;98896.78;8445951;28;20230;-68
2022/12/27 18:29:26;;;;;;;9.40;5.33;;;;;;;7.91;54.19;98921.25;8445665;28;20544;-68
2022/12/27 18:33:33;;;;;;;7.07;4.67;;;;;;;7.86;54.54;98921.31;8445728;28;20231;-68
2022/12/27 18:37:39;;;;;;;12.03;6.53;;;;;;;6.55;54.71;98721.75;8452733;28;20227;-68
2022/12/27 18:41:45;;;;;;;8.87;5.70;;;;;;;7.81;54.35;98918.84;8452026;28;20452;-68
2022/12/27 18:45:48;;;;;;;16.10;11.43;;;;;;;7.73;54.40;98918.13;8452245;28;20227;-68
2022/12/27 18:49:53;;;;;;;13.90;7.80;;;;;;;7.64;54.81;98924.28;8452308;28;20527;-69
2022/12/27 18:53:57;;;;;;;16.80;8.30;;;;;;;7.76;54.50;98922.38;8451655;28;20232;-68
2022/12/27 18:58:04;;;;;;;16.23;8.33;;;;;;;7.64;54.39;98898.50;8451331;28;20246;-68
2022/12/27 19:02:32;;;;;;;12.27;7.00;;;;;;;7.61;54.68;98919.19;8451555;28;20224;-68
2022/12/27 19:06:35;;;;;;;12.43;5.87;;;;;;;7.64;54.43;98901.09;8451762;28;20515;-69
2022/12/27 19:10:47;;;;;;;8.80;4.93;;;;;;;7.43;54.91;98898.91;8451373;28;20224;-68
2022/12/27 19:14:50;;;;;;;7.93;5.30;;;;;;;7.37;54.91;98899.00;8451115;28;20235;-69
2022/12/27 19:18:55;;;;;;;7.60;5.30;;;;;;;7.43;54.54;98886.00;8451005;28;20232;-68
2022/12/27 19:23:07;;;;;;;10.07;6.03;;;;;;;7.41;54.54;98895.50;8451148;28;20236;-68
2022/12/27 19:27:23;;;;;;;9.23;5.77;;;;;;;7.34;54.53;98887.00;8451082;28;20223;-69
2022/12/27 19:31:26;;;;;;;7.20;5.53;;;;;;;7.32;54.62;98890.50;8451065;28;20472;-68
2022/12/27 19:35:29;;;;;;;8.00;5.20;;;;;;;7.42;55.70;98897.19;8451005;28;20278;-68
2022/12/27 19:39:34;;;;;;;16.40;9.83;;;;;;;10.56;66.73;98901.22;8450689;28;20224;-67
2022/12/27 19:43:40;;;;;;;10.77;6.07;;;;;;;11.35;53.95;98891.88;8450221;28;20232;-67
2022/12/27 19:47:43;;;;;;;11.03;7.00;;;;;;;9.03;51.51;98911.25;8450119;28;20237;-67
2022/12/27 19:51:46;;;;;;;9.73;6.10;;;;;;;8.65;52.26;98905.19;8450475;28;20228;-68
2022/12/27 19:55:49;;;;;;;10.50;8.37;;;;;;;8.34;52.53;98910.09;8450438;28;20234;-68
2022/12/27 19:59:53;;;;;;;14.20;8.83;;;;;;;8.08;52.97;98916.63;8450226;28;20409;-68
2022/12/27 20:03:56;;;;;;;11.17;8.10;;;;;;;7.88;53.41;98922.19;8449545;28;20224;-68
2022/12/27 20:07:59;;;;;;;14.70;9.13;;;;;;;7.66;53.56;98889.91;8449980;28;20246;-68
2022/12/27 20:12:02;;;;;;;11.93;8.23;;;;;;;7.39;53.65;98862.00;8449696;28;20238;-68
2022/12/27 20:16:07;;;;;;;11.13;7.40;;;;;;;7.51;53.94;98893.59;8449453;28;20514;-69
2022/12/27 20:20:11;;;;;;;12.00;7.93;;;;;;;7.41;53.95;98883.44;8449731;28;20277;-68
2022/12/27 20:24:14;;;;;;;12.33;7.80;;;;;;;7.39;53.81;98884.38;8449356;28;20250;-68
2022/12/27 20:28:18;;;;;;;25.33;17.13;;;;;;;7.16;54.43;98879.56;8449343;28;20243;-68
2022/12/27 20:32:22;;;;;;;23.83;17.50;;;;;;;6.63;55.10;98880.34;8449114;28;20224;-68
2022/12/27 20:36:25;;;;;;;25.67;18.73;;;;;;;6.92;55.05;98867.94;8448879;28;20224;-68
2022/12/27 20:40:28;;;;;;;25.63;19.40;;;;;;;6.86;54.75;98876.59;8448490;28;20223;-68
2022/12/27 20:44:31;;;;;;;21.93;15.07;;;;;;;6.80;55.22;98867.25;8448670;28;20228;-68
2022/12/27 20:48:37;;;;;;;20.97;14.40;;;;;;;6.67;55.13;98867.44;8448629;28;20236;-68
2022/12/27 20:52:40;;;;;;;19.17;13.33;;;;;;;6.76;54.94;98844.13;8448489;28;20223;-68
2022/12/27 20:56:42;;;;;;;19.27;11.43;;;;;;;6.38;56.14;98837.81;8447701;28;20231;-67
2022/12/27 21:00:45;;;;;;;19.20;15.43;;;;;;;6.66;54.82;98845.97;8448103;28;20427;-67
2022/12/27 21:04:50;;;;;;;13.80;10.40;;;;;;;6.62;54.61;98840.03;8448031;28;20289;-67
2022/12/27 21:08:53;;;;;;;12.87;9.27;;;;;;;6.51;55.16;98808.47;8447569;28;20223;-67
2022/12/27 21:12:59;;;;;;;13.07;9.97;;;;;;;6.53;55.73;98840.19;8447771;28;20232;-68
2022/12/27 21:17:02;;;;;;;13.87;9.73;;;;;;;6.67;55.40;98836.56;8447328;28;20234;-67
2022/12/27 21:21:08;;;;;;;15.23;10.30;;;;;;;6.15;57.09;98838.97;8447434;28;20228;-67
2022/12/27 21:25:11;;;;;;;13.73;9.53;;;;;;;6.36;56.06;98840.41;8447403;28;20250;-68
2022/12/27 21:29:15;;;;;;;19.83;11.77;;;;;;;6.21;56.30;98814.88;8447130;28;20238;-68
2022/12/27 21:33:17;;;;;;;14.90;9.70;;;;;;;6.56;55.59;98826.41;8446994;28;20227;-67
2022/12/27 21:37:22;;;;;;;14.67;9.93;;;;;;;6.42;55.08;98800.88;8447173;28;20251;-68
2022/12/27 21:41:26;;;;;;;14.60;9.97;;;;;;;6.30;55.73;98773.56;8447057;28;20231;-68
2022/12/27 21:45:29;;;;;;;15.63;10.43;;;;;;;6.57;54.91;98812.69;8446948;28;20433;-68
2022/12/27 21:49:33;;;;;;;18.60;10.90;;;;;;;6.34;55.00;98800.13;8446674;28;20329;-68
2022/12/27 21:53:37;;;;;;;18.00;12.77;;;;;;;5.76;56.14;98742.56;8446651;28;20226;-69
2022/12/27 21:57:40;;;;;;;16.20;10.77;;;;;;;6.06;55.91;98774.78;8446688;28;20435;-70